Detall de PIREP

Printer-friendly versionPDF version

[2013/07/26 16:17:00]
Flight IATA:CT1004
Pilot Number:012
Company ICAO:CAT
Aircraft Type:BE20/A
PAX:6
Departing Airport: LIMJ
Destination Airport: LEBL
Alternate Airport:LEPA
Online: VATSIM
Route:LAGEN UM859 VAMTU UM984 DIVKO UN975 BISBA
Flight Level:F290
No Slew and time accel
No pause
Crash detect
Detect pilot in Cockpit between each 30 and 45 minutes
16:17 Zero fuel Weight: 9552 Lbs, Fuel Weight: 1792 Lbs
16:17 VATSIM:LIMJ 261520Z 22005KT 190V280 9999 FEW014 29/24 Q1015
16:17 VATSIM:LEBL 261600Z 10010KT 070V130 9999 FEW020 30/20 Q1013 NOSIG
16:17 VOICE CATALONIAN / SUMMER CHARTER
16:19 Parking Brakes off
16:23 Take-off
16:23 Take off Weight: 11328 Lbs
16:23 Wind: 236º @ 005 Knots Heading: 281º
16:23 POS N44º 24´ 44´´ E008º 50´ 22´´
16:23 Gear Up: 118 Knots
16:23 Flaps:1 at 119 Knots
16:24 Flaps:0 at 137 Knots
16:38 Wind:231º@019 Knots Heading: 245º Ground Speed: 173 Knots Altitude 22637 ft
16:43 TOC
16:43 Fuel Weight: 1527 Lb
16:53 Wind:216º@015 Knots Heading: 228º Ground Speed: 241 Knots Altitude 29055 ft
17:08 Wind:237º@018 Knots Heading: 247º Ground Speed: 240 Knots Altitude 29032 ft
17:23 Wind:227º@022 Knots Heading: 242º Ground Speed: 236 Knots Altitude 29019 ft
17:37 TOD
17:37 Fuel Weight: 1082 Lb
17:38 Wind:211º@035 Knots Heading: 219º Ground Speed: 243 Knots Altitude 28484 ft
17:53 Wind:225º@024 Knots Heading: 241º Ground Speed: 264 Knots Altitude 12339 ft
18:07 Flaps:1 at 160 Knots
18:08 Wind:060º@010 Knots Heading: 067º Ground Speed: 143 Knots Altitude 1499 ft
18:08 Flaps:2 at 151 Knots
18:08 Gear Down: 151 Knots
18:10 TouchDown:Rate -252 ft/min Speed: 113 Knots
18:10 VATSIM:LEBL 261800Z 06010KT 9999 FEW020 29/23 Q1012 NOSIG
18:10 Land
18:10 Wind:060º@010 Knots
18:10 Heading: 108º
18:10 Flight Duration: 01:47
18:10 Landing Weight: 10311 Lbs
18:10 POS N41º 17´ 57´´ E002º 05´ 11´´
18:13 Parking brakes on
18:13 Block to Block Duration: 01:54
18:13 Final Fuel: 749 Lbls
18:13 Spent Fuel: 1042 Lbls
18:13 Flight Length: 406 NM
18:13 TOD Land Length: 136 NM

Exportar CSV

Powered by Drupal - Modified by Danger4k